Houston, TX (77001)

11:26 PM CST on January 16, 2017 (GMT -0600)
Daintrees Corner, First Ward | | Change Station

Elev 49 ft 29.77 °N, 95.37 °W | Updated 28 seconds ago

Overcast
Overcast
72.1 °F
Feels Like 72.1 °F
N
2.0
Wind Variable Wind from WNW

Today
High -- | Low -- °F
--% Chance of Precip.
Yesterday
High -- | Low -- °F
Precip. -- in
Pressure 30.00 in
Visibility 4.0 miles
Clouds Overcast 500 ft
Dew Point 69 °F
Humidity 91%
Rainfall 0.00 in
Snow Depth Not available.
7:17 AM 5:45 PM
Waning Gibbous, 75% visible
METAR KMCJ 170515Z AUTO 17007KT 020V030 4SM OVC005 22/21 A3000 RMK AO1
Pressure 30.00 in
Visibility 4.0 miles
Clouds Overcast 500 ft
Dew Point 69 °F
Humidity 91%
Rainfall 0.00 in
Snow Depth Not available.
7:17 AM 5:45 PM
Waning Gibbous, 75% visible
METAR KMCJ 170515Z AUTO 17007KT 020V030 4SM OVC005 22/21 A3000 RMK AO1

Get Your Daily Forecast Email!

Thanks for signing up!

Be on the lookout for a verification email in your inbox.

You'll start receiving the daily forecast at 8 AM.

×

10-Day Weather Forecast

Almanac

Astronomy

Jan. 16, 2017 Rise Set
Actual Time
Civil Twilight
Nautical Twilight
Astronomical Twilight
Moon
Length of Visible Light
Length of Day
Tomorrow will be .
, % of the Moon is Illuminated

Today's Extremes

State Highs State Lows

Community

WunderPhotos

Upload Photos

1,962,540 photos uploaded!

WunderBlog® & News

Nearby

Air Quality

  Air Quality AQ Index Pollutant
Not available.

Snow Depth

Station Depth Elevation

Earthquake Activity

City Distance Mag. Time & Date
Minimum magnitude displayed is 2.5.

Coastal Water Temperatures

Place Temperature

Stations

Nearby Weather Stations

Station Location Temp. Windchill Dew Point Humidity Wind Precip. Elev Updated Type
                   

Watches & Warnings

There are currently no watches in effect.